Latest  Newer  Older  Last 2 hours slideshow  Last 24 hours slideshow  Refresh every 5 minutes 
Current image  Latest image  Rain/snow radar  Cloud coverage sat images 

All time is UTC (add 2 hours to UTC in wintertime, 3 hours to UTC in DST for Latvia local time)

2020/04/01 22:20 EVRA 012220Z 20006KT 9999 -RA BKN018 OVC034 04/01 Q1001 NOSIG
2020/04/01 22:20 EVLA 012220Z AUTO 23012KT 9999 SCT008/// BKN040/// OVC048/// 05/04 Q1001
2020/04/01 22:20 EVVA 012220Z AUTO 22011KT CAVOK 05/04 Q0999
2020/04/01 22:20 EYKA 012220Z AUTO 22005KT 9999 -UP OVC030/// 03/M01 Q1006
2020/04/01 22:20 EYPA 012220Z AUTO 25007KT 200V290 9999 OVC009/// 05/04 Q1003
2020/04/01 22:20 EYSA 012220Z AUTO 21011KT 8000NDV SHRA BKN006 BKN009 OVC016 03/02 Q1003
2020/04/01 22:20 EYVI 012220Z 21008KT 9999 SCT034 OVC049 01/M01 Q1007 NOSIG

2020/04/01 22:08 EEKE 012208Z AUTO 24008KT 200V270 9999NDV DZ FEW012 BKN042 OVC050 05/04 Q0999

2020/04/01 22:20 EETN 012220Z 20005KT 9999 FEW049 M00/M03 Q0997 R08/00//95

   RIGA AIRPORT     EVRA               56 55N  023 58E   10   X     T          6 LV
   LIEPAJA INTL     EVLA        26406  56 31N  021 06E    4   X                8 LV
   VENTPILS         EVVA               57 21N  021 33E    6   X                8 LV
   KAUNAS           EYKA               54 54N  023 55E   77   X     T          6 LT
   PALANGA INTL     EYPA               55 55N  021 03E   10   X                6 LT
   SIAULIAI INTL    EYSA               55 54N  023 24E  135   X     T          6 LT
   VILNIUS INTL     EYVI        26730  54 38N  025 17E  197   X     T          6 LT
   KARDLA           EEKA        26116  58 59N  022 50E    4   X                8 EE
   KURESSAARE       EEKE               58 14N  022 31E    4   X                8 EE
   PARNU            EEPU               58 25N  024 28E   14   X                8 EE
   TALLINN          EETN        26038  59 24N  024 49E   40   X     T          8 EE
   TARTU            EETU               58 19N  026 41E   67   X                8 EE